Time,TemperatureF,DewpointF,PressureIn,WindDirection,WindDirectionDegrees,WindSpeedMPH,WindSpeedGustMPH,Humidity,HourlyPrecipIn,Conditions,Clouds,dailyrainin,SolarRadiationWatts/m^2,SoftwareType,DateUTC
2013-03-08 00:01:00,25.0,23.0,-100.00,NNW,338,1.0,2.0,93,0.00,,,0.18,0.000000,,2013-03-08 08:01:00,
2013-03-08 00:11:00,25.0,23.0,-100.00,NNW,338,1.0,2.0,93,0.00,,,0.18,0.000000,,2013-03-08 08:11:00,
2013-03-08 00:21:00,25.0,23.0,-100.00,NNW,338,1.0,2.0,93,0.00,,,0.18,0.000000,,2013-03-08 08:21:00,
2013-03-08 00:31:00,25.0,23.0,-100.00,NNW,338,1.0,2.0,93,0.00,,,0.18,0.000000,,2013-03-08 08:31:00,
2013-03-08 00:52:00,23.0,22.0,-100.00,NNW,338,1.0,2.0,94,0.00,,,0.18,0.000000,,2013-03-08 08:52:00,
2013-03-08 01:02:00,23.0,22.0,-100.00,NNW,338,1.0,2.0,94,0.00,,,0.18,0.000000,,2013-03-08 09:02:00,
2013-03-08 01:11:00,23.0,22.0,-100.00,NNW,338,1.0,2.0,94,0.00,,,0.18,0.000000,,2013-03-08 09:11:00,
2013-03-08 01:21:00,23.0,22.0,-100.00,NNW,338,1.0,2.0,94,0.00,,,0.18,0.000000,,2013-03-08 09:21:00,
2013-03-08 01:31:00,23.0,22.0,-100.00,NNW,338,1.0,2.0,94,0.00,,,0.18,0.000000,,2013-03-08 09:31:00,
2013-03-08 01:52:00,23.0,22.0,-100.00,NNW,338,0.0,2.0,94,0.00,,,0.18,0.000000,,2013-03-08 09:52:00,
2013-03-08 02:01:00,23.0,22.0,-100.00,NNW,338,0.0,2.0,94,0.00,,,0.18,0.000000,,2013-03-08 10:01:00,
2013-03-08 02:11:00,23.0,22.0,-100.00,NNW,338,0.0,2.0,94,0.00,,,0.18,0.000000,,2013-03-08 10:11:00,
2013-03-08 02:21:00,23.0,22.0,-100.00,NNW,338,0.0,2.0,94,0.00,,,0.18,0.000000,,2013-03-08 10:21:00,
2013-03-08 02:31:00,23.0,22.0,-100.00,NNW,338,0.0,2.0,94,0.00,,,0.18,0.000000,,2013-03-08 10:31:00,
2013-03-08 02:52:00,26.0,25.0,-100.00,NNW,338,0.0,2.0,97,0.00,,,0.18,0.000000,,2013-03-08 10:52:00,
2013-03-08 03:01:00,26.0,25.0,-100.00,NNW,338,0.0,2.0,97,0.00,,,0.18,0.000000,,2013-03-08 11:01:00,
2013-03-08 03:11:00,26.0,25.0,-100.00,NNW,338,0.0,2.0,97,0.00,,,0.18,0.000000,,2013-03-08 11:11:00,
2013-03-08 03:21:00,26.0,25.0,-100.00,NNW,338,0.0,2.0,97,0.00,,,0.18,0.000000,,2013-03-08 11:21:00,
2013-03-08 03:32:00,26.0,25.0,-100.00,NNW,338,0.0,2.0,97,0.00,,,0.18,0.000000,,2013-03-08 11:32:00,
2013-03-08 03:52:00,23.0,22.0,-100.00,NNW,338,0.0,2.0,96,0.00,,,0.18,0.000000,,2013-03-08 11:52:00,
2013-03-08 04:01:00,23.0,22.0,-100.00,NNW,338,0.0,2.0,96,0.00,,,0.18,0.000000,,2013-03-08 12:01:00,
2013-03-08 04:11:00,23.0,22.0,-100.00,NNW,338,0.0,2.0,96,0.00,,,0.18,0.000000,,2013-03-08 12:11:00,
2013-03-08 04:22:00,23.0,22.0,-100.00,NNW,338,0.0,2.0,96,0.00,,,0.18,0.000000,,2013-03-08 12:22:00,
2013-03-08 04:32:00,23.0,22.0,-100.00,NNW,338,0.0,2.0,96,0.00,,,0.18,0.000000,,2013-03-08 12:32:00,
2013-03-08 04:52:00,22.0,21.0,-100.00,NNW,338,0.0,0.0,95,0.00,,,0.18,0.000000,,2013-03-08 12:52:00,
2013-03-08 05:01:00,22.0,21.0,-100.00,NNW,338,0.0,0.0,95,0.00,,,0.18,0.000000,,2013-03-08 13:01:00,
2013-03-08 05:32:00,22.0,21.0,-100.00,NNW,338,0.0,0.0,95,0.00,,,0.18,0.000000,,2013-03-08 13:32:00,
2013-03-08 05:52:00,21.0,20.0,-100.00,NNW,338,0.0,0.0,95,0.00,,,0.18,0.000000,,2013-03-08 13:52:00,
2013-03-08 06:02:00,21.0,20.0,-100.00,NNW,338,0.0,0.0,95,0.00,,,0.18,0.000000,,2013-03-08 14:02:00,
2013-03-08 06:11:00,21.0,20.0,-100.00,NNW,338,0.0,0.0,95,0.00,,,0.18,0.000000,,2013-03-08 14:11:00,
2013-03-08 06:22:00,21.0,20.0,-100.00,NNW,338,0.0,0.0,95,0.00,,,0.18,0.000000,,2013-03-08 14:22:00,
2013-03-08 06:32:00,21.0,20.0,-100.00,NNW,338,0.0,0.0,95,0.00,,,0.18,0.000000,,2013-03-08 14:32:00,
2013-03-08 06:52:00,21.0,20.0,-100.00,NNW,338,0.0,0.0,96,0.00,,,0.18,1.000000,,2013-03-08 14:52:00,
2013-03-08 07:02:00,21.0,20.0,-100.00,NNW,338,0.0,0.0,96,0.00,,,0.18,1.000000,,2013-03-08 15:02:00,
2013-03-08 07:11:00,21.0,20.0,-100.00,NNW,338,0.0,0.0,96,0.00,,,0.18,1.000000,,2013-03-08 15:11:00,
2013-03-08 07:21:00,21.0,20.0,-100.00,NNW,338,0.0,0.0,96,0.00,,,0.18,1.000000,,2013-03-08 15:21:00,
2013-03-08 07:53:00,22.0,21.0,-100.00,NNW,338,0.0,0.0,96,0.00,,,0.18,9.000000,,2013-03-08 15:53:00,
2013-03-08 08:01:00,22.0,21.0,-100.00,NNW,338,0.0,0.0,96,0.00,,,0.18,9.000000,,2013-03-08 16:01:00,
2013-03-08 08:11:00,22.0,21.0,-100.00,NNW,338,0.0,0.0,96,0.00,,,0.18,9.000000,,2013-03-08 16:11:00,
2013-03-08 08:21:00,22.0,21.0,-100.00,NNW,338,0.0,0.0,96,0.00,,,0.18,9.000000,,2013-03-08 16:21:00,
2013-03-08 08:31:00,22.0,21.0,-100.00,NNW,338,0.0,0.0,96,0.00,,,0.18,9.000000,,2013-03-08 16:31:00,
2013-03-08 08:52:00,25.0,24.0,-100.00,NNW,338,0.0,0.0,95,0.00,,,0.18,22.000000,,2013-03-08 16:52:00,
2013-03-08 09:02:00,25.0,24.0,-100.00,NNW,338,0.0,0.0,95,0.00,,,0.18,22.000000,,2013-03-08 17:02:00,
2013-03-08 09:11:00,25.0,24.0,-100.00,NNW,338,0.0,0.0,95,0.00,,,0.18,22.000000,,2013-03-08 17:11:00,
2013-03-08 09:21:00,25.0,24.0,-100.00,NNW,338,0.0,0.0,95,0.00,,,0.18,22.000000,,2013-03-08 17:21:00,
2013-03-08 09:31:00,25.0,24.0,-100.00,NNW,338,0.0,0.0,95,0.00,,,0.18,22.000000,,2013-03-08 17:31:00,
2013-03-08 09:52:00,28.0,26.0,-100.00,NNW,338,0.0,0.0,93,0.00,,,0.17,50.000000,,2013-03-08 17:52:00,
2013-03-08 10:01:00,28.0,26.0,-100.00,NNW,338,0.0,0.0,93,0.00,,,0.17,50.000000,,2013-03-08 18:01:00,
2013-03-08 10:11:00,28.0,26.0,-100.00,NNW,338,0.0,0.0,93,0.00,,,0.17,50.000000,,2013-03-08 18:11:00,
2013-03-08 10:21:00,28.0,26.0,-100.00,NNW,338,0.0,0.0,93,0.00,,,0.17,50.000000,,2013-03-08 18:21:00,
2013-03-08 10:31:00,28.0,26.0,-100.00,NNW,338,0.0,0.0,93,0.00,,,0.17,50.000000,,2013-03-08 18:31:00,
2013-03-08 10:52:00,35.0,26.0,-100.00,NNW,338,1.0,4.0,69,0.00,,,0.15,218.000000,,2013-03-08 18:52:00,
2013-03-08 11:01:00,35.0,26.0,-100.00,NNW,338,1.0,4.0,69,0.00,,,0.15,218.000000,,2013-03-08 19:01:00,
2013-03-08 11:11:00,35.0,26.0,-100.00,NNW,338,1.0,4.0,69,0.00,,,0.15,218.000000,,2013-03-08 19:11:00,
2013-03-08 11:21:00,35.0,26.0,-100.00,NNW,338,1.0,4.0,69,0.00,,,0.15,218.000000,,2013-03-08 19:21:00,
2013-03-08 11:31:00,35.0,26.0,-100.00,NNW,338,1.0,4.0,69,0.00,,,0.15,218.000000,,2013-03-08 19:31:00,
2013-03-08 11:52:00,35.0,28.0,-100.00,NNW,338,0.0,5.0,74,0.01,,,0.14,211.000000,,2013-03-08 19:52:00,
2013-03-08 12:01:00,35.0,28.0,-100.00,NNW,338,0.0,5.0,74,0.01,,,0.14,211.000000,,2013-03-08 20:01:00,
2013-03-08 12:11:00,35.0,28.0,-100.00,NNW,338,0.0,5.0,74,0.01,,,0.14,211.000000,,2013-03-08 20:11:00,
2013-03-08 12:21:00,35.0,28.0,-100.00,NNW,338,0.0,5.0,74,0.01,,,0.14,211.000000,,2013-03-08 20:21:00,
2013-03-08 12:53:00,42.0,32.0,-100.00,NNW,338,2.0,6.0,67,-99.99,,,0.14,395.000000,,2013-03-08 20:53:00,
2013-03-08 13:01:00,42.0,32.0,-100.00,NNW,338,2.0,6.0,67,-99.99,,,0.14,395.000000,,2013-03-08 21:01:00,
2013-03-08 13:11:00,42.0,32.0,-100.00,NNW,338,2.0,6.0,67,-99.99,,,0.14,395.000000,,2013-03-08 21:11:00,
2013-03-08 13:21:00,42.0,32.0,-100.00,NNW,338,2.0,6.0,67,-99.99,,,0.14,395.000000,,2013-03-08 21:21:00,
2013-03-08 13:32:00,42.0,32.0,-100.00,NNW,338,2.0,6.0,67,-99.99,,,0.14,395.000000,,2013-03-08 21:32:00,
2013-03-08 13:52:00,38.0,29.0,-100.00,NNW,338,2.0,7.0,71,0.03,,,0.12,388.000000,,2013-03-08 21:52:00,
2013-03-08 14:01:00,38.0,29.0,-100.00,NNW,338,2.0,7.0,71,0.03,,,0.12,388.000000,,2013-03-08 22:01:00,
2013-03-08 14:11:00,38.0,29.0,-100.00,NNW,338,2.0,7.0,71,0.03,,,0.12,388.000000,,2013-03-08 22:11:00,
2013-03-08 14:21:00,38.0,29.0,-100.00,NNW,338,2.0,7.0,71,0.03,,,0.12,388.000000,,2013-03-08 22:21:00,
2013-03-08 14:32:00,38.0,29.0,-100.00,NNW,338,2.0,7.0,71,0.03,,,0.12,388.000000,,2013-03-08 22:32:00,
2013-03-08 14:52:00,44.0,32.0,-100.00,NNW,338,3.0,6.0,62,-99.99,,,-99.99,407.000000,,2013-03-08 22:52:00,
2013-03-08 15:01:00,44.0,32.0,-100.00,NNW,338,3.0,6.0,62,-99.99,,,-99.99,407.000000,,2013-03-08 23:01:00,
2013-03-08 15:11:00,44.0,32.0,-100.00,NNW,338,3.0,6.0,62,-99.99,,,-99.99,407.000000,,2013-03-08 23:11:00,
2013-03-08 15:21:00,44.0,32.0,-100.00,NNW,338,3.0,6.0,62,-99.99,,,-99.99,407.000000,,2013-03-08 23:21:00,
2013-03-08 15:31:00,44.0,32.0,-100.00,NNW,338,3.0,6.0,62,-99.99,,,-99.99,407.000000,,2013-03-08 23:31:00,
2013-03-08 15:53:00,45.0,31.0,-100.00,NNW,338,2.0,7.0,57,0.03,,,0.15,457.000000,,2013-03-08 23:53:00,
2013-03-08 16:01:00,45.0,31.0,-100.00,NNW,338,2.0,7.0,57,0.03,,,0.15,457.000000,,2013-03-09 00:01:00,
2013-03-08 16:11:00,45.0,31.0,-100.00,NNW,338,2.0,7.0,57,0.03,,,0.15,457.000000,,2013-03-09 00:11:00,
2013-03-08 16:21:00,45.0,31.0,-100.00,NNW,338,2.0,7.0,57,0.03,,,0.15,457.000000,,2013-03-09 00:21:00,
2013-03-08 16:31:00,45.0,31.0,-100.00,NNW,338,2.0,7.0,57,0.03,,,0.15,457.000000,,2013-03-09 00:31:00,
2013-03-08 16:52:00,42.0,30.0,-100.00,NNW,338,2.0,5.0,63,0.04,,,0.18,267.000000,,2013-03-09 00:52:00,
2013-03-08 17:01:00,42.0,30.0,-100.00,NNW,338,2.0,5.0,63,0.04,,,0.18,267.000000,,2013-03-09 01:01:00,
2013-03-08 17:12:00,42.0,30.0,-100.00,NNW,338,2.0,5.0,63,0.04,,,0.18,267.000000,,2013-03-09 01:12:00,
2013-03-08 17:21:00,42.0,30.0,-100.00,NNW,338,2.0,5.0,63,0.04,,,0.18,267.000000,,2013-03-09 01:21:00,
2013-03-08 17:31:00,42.0,30.0,-100.00,NNW,338,2.0,5.0,63,0.04,,,0.18,267.000000,,2013-03-09 01:31:00,
2013-03-08 19:52:00,29.0,23.0,-100.00,NNW,337,1.0,3.0,79,-99.99,,,0.19,0.000000,,2013-03-09 03:52:00,
2013-03-08 20:01:00,29.0,23.0,-100.00,NNW,337,1.0,3.0,79,-99.99,,,0.19,0.000000,,2013-03-09 04:01:00,
2013-03-08 20:11:00,29.0,23.0,-100.00,NNW,337,1.0,3.0,79,-99.99,,,0.19,0.000000,,2013-03-09 04:11:00,
2013-03-08 20:22:00,29.0,23.0,-100.00,NNW,337,1.0,3.0,79,-99.99,,,0.19,0.000000,,2013-03-09 04:22:00,
2013-03-08 20:52:00,28.0,24.0,-100.00,NNW,337,1.0,3.0,83,0.00,,,0.19,0.000000,,2013-03-09 04:52:00,
2013-03-08 21:02:00,28.0,24.0,-100.00,NNW,337,1.0,3.0,83,0.00,,,0.19,0.000000,,2013-03-09 05:02:00,
2013-03-08 21:11:00,28.0,24.0,-100.00,NNW,337,1.0,3.0,83,0.00,,,0.19,0.000000,,2013-03-09 05:11:00,
2013-03-08 21:21:00,28.0,24.0,-100.00,NNW,337,1.0,3.0,83,0.00,,,0.19,0.000000,,2013-03-09 05:21:00,
2013-03-08 21:31:00,28.0,24.0,-100.00,NNW,337,1.0,3.0,83,0.00,,,0.19,0.000000,,2013-03-09 05:31:00,
2013-03-08 21:53:00,28.0,24.0,-100.00,NNW,337,1.0,2.0,84,0.00,,,0.19,0.000000,,2013-03-09 05:53:00,
2013-03-08 22:01:00,28.0,24.0,-100.00,NNW,337,1.0,2.0,84,0.00,,,0.19,0.000000,,2013-03-09 06:01:00,
2013-03-08 22:11:00,28.0,24.0,-100.00,NNW,337,1.0,2.0,84,0.00,,,0.19,0.000000,,2013-03-09 06:11:00,
2013-03-08 22:22:00,28.0,24.0,-100.00,NNW,337,1.0,2.0,84,0.00,,,0.19,0.000000,,2013-03-09 06:22:00,
2013-03-08 22:31:00,28.0,24.0,-100.00,NNW,337,1.0,2.0,84,0.00,,,0.19,0.000000,,2013-03-09 06:31:00,
2013-03-08 22:52:00,27.0,23.0,-100.00,NNW,337,0.0,2.0,84,0.00,,,0.19,0.000000,,2013-03-09 06:52:00,
2013-03-08 23:01:00,27.0,23.0,-100.00,NNW,337,0.0,2.0,84,0.00,,,0.19,0.000000,,2013-03-09 07:01:00,
2013-03-08 23:11:00,27.0,23.0,-100.00,NNW,337,0.0,2.0,84,0.00,,,0.19,0.000000,,2013-03-09 07:11:00,
2013-03-08 23:21:00,27.0,23.0,-100.00,NNW,337,0.0,2.0,84,0.00,,,0.19,0.000000,,2013-03-09 07:21:00,
2013-03-08 23:31:00,27.0,23.0,-100.00,NNW,337,0.0,2.0,84,0.00,,,0.19,0.000000,,2013-03-09 07:31:00,
2013-03-08 23:52:00,27.0,22.0,-100.00,NNW,337,1.0,3.0,80,0.00,,,0.19,0.000000,,2013-03-09 07:52:00,